To NAV CANADA Home Page Login to a new session Search on AWWS site Disclaimer Vers la page française équivalente Tips FAQ What's new on the site To the Forecasts and Observations / NOTAM section To "File a Flight Plan" website Publications and other links Update of the User's profile FIC Telephone Numbers My Weather Data Folder Route Weather Data Regional Weather Data Local Weather Data To the Forecasts and Observations / NOTAM section
Request Generated 10/19/2018 at 15:27:34 UTC . Weather information available at that time is displayed.

METAR/TAF

KAPUSKASING/ON    

METAR CYYU 191500Z 22015G22KT 15SM FEW067 FEW080 SCT090 BKN110 09/06 A2947 RMK AC1AC1AC2AC3 SLP988 DENSITY ALT 800FT=
SPECI CYYU 191420Z 22013KT 15SM -RA SCT069 SCT090 BKN100 OVC120 09/05 A2948 RMK AC3AC1AC3AC1 SLP992=
METAR CYYU 191400Z 22012G20KT 15SM FEW110 SCT140 BKN150 BKN170 BKN180 08/05 A2947 RMK AC1AC3AC1AC1AC1 SLP991=
METAR CYYU 191300Z 23011G16KT 15SM FEW050 SCT100 SCT260 07/04 A2951 RMK SC1AC2CI1 SLP002=

TAF CYYU 191340Z 1914/2002 23010G20KT P6SM FEW050 SCT100 TEMPO
1914/1915 P6SM -SHRA BKN050 OVC100
FM191500 24015G25KT P6SM SCT015 BKN070 TEMPO 1915/1918 5SM -SHRA
BR BKN015 OVC050
FM191800 24018G28KT P6SM -RA OVC020 TEMPO 1918/1921 4SM -RA BR
BKN008 OVC020
FM192100 26012G22KT 6SM -RA BR SCT006 OVC012 TEMPO 1921/2002 3SM
-RA BR BKN006 OVC012
BECMG 1922/1924 30008KT
RMK NXT FCST BY 192000Z=
Your time UTC time
Weather data provided by Environment Canada and NAV CANADA